Terminal Aerodrome Forecast
Issued by NWS Pittsburgh, PA

Current Version | Previous Version | Text Only | Print | Product List | Glossary Off
Versions: 1 2 3 4 5 6 7 8 9 10 11 12 13 14 15 16 17 18 19 20 21 22 23 24 25 26 27 28

127
FTUS41 KPBZ 240221 AAA
TAFPIT
TAF AMD
KPIT 240221Z 2402/2506 22005KT P6SM -SHRA SCT005 OVC060
      TEMPO 2402/2406 4SM -RA BR BKN005
     FM240600 28010KT 6SM BR OVC007
     FM240800 29009KT P6SM BKN015
     FM241000 29008KT P6SM SCT025
     FM241700 27015G22KT P6SM BKN050
     FM242300 29010KT P6SM SCT250=

USA.gov is the U.S. government's official web portal to all federal, state and local government web resources and services.